sensor_id;sensor_type;location;lat;lon;timestamp;P1;durP1;ratioP1;P2;durP2;ratioP2
52534;SDS011;38443;53.164;5.802;2023-04-03T00:04:09;3.22;;;2.05;;
52534;SDS011;38443;53.164;5.802;2023-04-03T00:09:00;2.58;;;1.90;;
52534;SDS011;38443;53.164;5.802;2023-04-03T00:13:51;3.97;;;2.03;;
52534;SDS011;38443;53.164;5.802;2023-04-03T00:18:42;3.60;;;2.40;;
52534;SDS011;38443;53.164;5.802;2023-04-03T00:23:33;3.35;;;2.17;;
52534;SDS011;38443;53.164;5.802;2023-04-03T00:25:59;3.55;;;2.40;;
52534;SDS011;38443;53.164;5.802;2023-04-03T00:30:50;3.65;;;3.00;;
52534;SDS011;38443;53.164;5.802;2023-04-03T00:33:16;5.90;;;2.60;;
52534;SDS011;38443;53.164;5.802;2023-04-03T00:38:08;3.85;;;2.30;;
52534;SDS011;38443;53.164;5.802;2023-04-03T00:43:00;5.13;;;2.70;;
52534;SDS011;38443;53.164;5.802;2023-04-03T00:45:28;3.97;;;2.47;;
52534;SDS011;38443;53.164;5.802;2023-04-03T00:47:59;3.75;;;2.60;;
52534;SDS011;38443;53.164;5.802;2023-04-03T00:50:27;3.25;;;2.63;;
52534;SDS011;38443;53.164;5.802;2023-04-03T00:52:53;5.03;;;2.83;;
52534;SDS011;38443;53.164;5.802;2023-04-03T00:57:45;3.40;;;2.70;;
52534;SDS011;38443;53.164;5.802;2023-04-03T01:00:12;3.85;;;2.40;;
52534;SDS011;38443;53.164;5.802;2023-04-03T01:02:41;6.25;;;2.88;;
52534;SDS011;38443;53.164;5.802;2023-04-03T01:07:31;3.63;;;2.13;;
52534;SDS011;38443;53.164;5.802;2023-04-03T01:10:03;4.07;;;2.53;;
52534;SDS011;38443;53.164;5.802;2023-04-03T01:12:33;4.47;;;2.30;;
52534;SDS011;38443;53.164;5.802;2023-04-03T01:17:47;3.22;;;2.05;;
52534;SDS011;38443;53.164;5.802;2023-04-03T01:28:03;3.63;;;2.42;;
52534;SDS011;38443;53.164;5.802;2023-04-03T01:30:33;4.78;;;2.17;;
52534;SDS011;38443;53.164;5.802;2023-04-03T01:33:01;3.42;;;2.40;;
52534;SDS011;38443;53.164;5.802;2023-04-03T01:37:52;4.37;;;2.90;;
52534;SDS011;38443;53.164;5.802;2023-04-03T01:40:17;5.20;;;2.40;;
52534;SDS011;38443;53.164;5.802;2023-04-03T01:45:08;5.53;;;2.63;;
52534;SDS011;38443;53.164;5.802;2023-04-03T01:49:59;6.15;;;2.15;;
52534;SDS011;38443;53.164;5.802;2023-04-03T01:54:50;5.03;;;3.05;;
52534;SDS011;38443;53.164;5.802;2023-04-03T01:59:41;3.25;;;1.85;;
52534;SDS011;38443;53.164;5.802;2023-04-03T02:04:31;4.20;;;1.90;;
52534;SDS011;38443;53.164;5.802;2023-04-03T02:09:22;3.97;;;1.83;;
52534;SDS011;38443;53.164;5.802;2023-04-03T02:11:47;5.65;;;2.55;;
52534;SDS011;38443;53.164;5.802;2023-04-03T02:16:37;3.53;;;1.93;;
52534;SDS011;38443;53.164;5.802;2023-04-03T02:19:03;2.42;;;1.63;;
52534;SDS011;38443;53.164;5.802;2023-04-03T02:21:28;3.92;;;1.98;;
52534;SDS011;38443;53.164;5.802;2023-04-03T02:26:19;3.90;;;1.90;;
52534;SDS011;38443;53.164;5.802;2023-04-03T02:31:10;2.83;;;1.80;;
52534;SDS011;38443;53.164;5.802;2023-04-03T02:36:01;4.97;;;2.10;;
52534;SDS011;38443;53.164;5.802;2023-04-03T02:38:28;4.03;;;2.15;;
52534;SDS011;38443;53.164;5.802;2023-04-03T02:43:24;2.85;;;1.73;;
52534;SDS011;38443;53.164;5.802;2023-04-03T02:48:15;6.18;;;2.30;;
52534;SDS011;38443;53.164;5.802;2023-04-03T02:50:41;4.53;;;2.28;;
52534;SDS011;38443;53.164;5.802;2023-04-03T02:55:32;3.80;;;2.03;;
52534;SDS011;38443;53.164;5.802;2023-04-03T03:00:22;4.53;;;2.25;;
52534;SDS011;38443;53.164;5.802;2023-04-03T03:05:13;3.92;;;2.10;;
52534;SDS011;38443;53.164;5.802;2023-04-03T03:10:05;2.80;;;2.15;;
52534;SDS011;38443;53.164;5.802;2023-04-03T03:14:55;5.23;;;2.10;;
52534;SDS011;38443;53.164;5.802;2023-04-03T03:19:46;4.03;;;1.80;;
52534;SDS011;38443;53.164;5.802;2023-04-03T03:22:11;3.05;;;2.58;;
52534;SDS011;38443;53.164;5.802;2023-04-03T03:27:02;4.32;;;2.58;;
52534;SDS011;38443;53.164;5.802;2023-04-03T03:29:27;5.18;;;2.40;;
52534;SDS011;38443;53.164;5.802;2023-04-03T03:34:18;5.63;;;2.40;;
52534;SDS011;38443;53.164;5.802;2023-04-03T03:39:09;3.72;;;2.03;;
52534;SDS011;38443;53.164;5.802;2023-04-03T03:41:34;3.95;;;2.22;;
52534;SDS011;38443;53.164;5.802;2023-04-03T03:46:25;3.30;;;2.30;;
52534;SDS011;38443;53.164;5.802;2023-04-03T03:51:15;5.40;;;2.10;;
52534;SDS011;38443;53.164;5.802;2023-04-03T03:56:06;4.70;;;2.53;;
52534;SDS011;38443;53.164;5.802;2023-04-03T04:01:00;5.97;;;2.72;;
52534;SDS011;38443;53.164;5.802;2023-04-03T04:03:26;5.35;;;2.60;;
52534;SDS011;38443;53.164;5.802;2023-04-03T04:08:17;4.28;;;2.50;;
52534;SDS011;38443;53.164;5.802;2023-04-03T04:13:08;3.05;;;2.35;;
52534;SDS011;38443;53.164;5.802;2023-04-03T04:17:58;7.30;;;2.75;;
52534;SDS011;38443;53.164;5.802;2023-04-03T04:22:49;3.33;;;2.45;;
52534;SDS011;38443;53.164;5.802;2023-04-03T04:27:40;5.38;;;2.33;;
52534;SDS011;38443;53.164;5.802;2023-04-03T04:32:31;7.10;;;3.03;;
52534;SDS011;38443;53.164;5.802;2023-04-03T04:37:21;6.07;;;2.55;;
52534;SDS011;38443;53.164;5.802;2023-04-03T04:42:12;4.47;;;2.60;;
52534;SDS011;38443;53.164;5.802;2023-04-03T04:47:03;6.57;;;2.10;;
52534;SDS011;38443;53.164;5.802;2023-04-03T04:51:54;6.25;;;2.38;;
52534;SDS011;38443;53.164;5.802;2023-04-03T04:56:45;6.38;;;2.78;;
52534;SDS011;38443;53.164;5.802;2023-04-03T05:01:35;3.90;;;2.55;;
52534;SDS011;38443;53.164;5.802;2023-04-03T05:06:26;6.43;;;3.47;;
52534;SDS011;38443;53.164;5.802;2023-04-03T05:11:17;7.10;;;2.72;;
52534;SDS011;38443;53.164;5.802;2023-04-03T05:16:07;7.25;;;3.38;;
52534;SDS011;38443;53.164;5.802;2023-04-03T05:20:58;6.07;;;2.90;;
52534;SDS011;38443;53.164;5.802;2023-04-03T05:23:23;7.10;;;2.65;;
52534;SDS011;38443;53.164;5.802;2023-04-03T05:28:14;8.50;;;3.17;;
52534;SDS011;38443;53.164;5.802;2023-04-03T05:33:05;5.17;;;2.60;;
52534;SDS011;38443;53.164;5.802;2023-04-03T05:37:56;4.78;;;2.78;;
52534;SDS011;38443;53.164;5.802;2023-04-03T05:42:46;5.78;;;3.25;;
52534;SDS011;38443;53.164;5.802;2023-04-03T05:47:37;6.87;;;4.03;;
52534;SDS011;38443;53.164;5.802;2023-04-03T05:52:29;6.15;;;2.95;;
52534;SDS011;38443;53.164;5.802;2023-04-03T05:54:55;6.32;;;3.05;;
52534;SDS011;38443;53.164;5.802;2023-04-03T05:59:47;4.72;;;2.83;;
52534;SDS011;38443;53.164;5.802;2023-04-03T06:02:18;4.03;;;2.63;;
52534;SDS011;38443;53.164;5.802;2023-04-03T06:04:45;10.02;;;3.45;;
52534;SDS011;38443;53.164;5.802;2023-04-03T06:07:15;7.90;;;3.05;;
52534;SDS011;38443;53.164;5.802;2023-04-03T06:09:42;9.88;;;2.78;;
52534;SDS011;38443;53.164;5.802;2023-04-03T06:14:33;8.90;;;3.85;;
52534;SDS011;38443;53.164;5.802;2023-04-03T06:16:59;9.10;;;3.33;;
52534;SDS011;38443;53.164;5.802;2023-04-03T06:21:50;7.22;;;3.08;;
52534;SDS011;38443;53.164;5.802;2023-04-03T06:26:42;7.78;;;4.13;;
52534;SDS011;38443;53.164;5.802;2023-04-03T06:31:33;8.18;;;3.42;;
52534;SDS011;38443;53.164;5.802;2023-04-03T06:33:59;5.68;;;3.25;;
52534;SDS011;38443;53.164;5.802;2023-04-03T06:38:50;7.45;;;2.95;;
52534;SDS011;38443;53.164;5.802;2023-04-03T06:43:41;6.97;;;3.17;;
52534;SDS011;38443;53.164;5.802;2023-04-03T06:48:37;7.90;;;2.53;;
52534;SDS011;38443;53.164;5.802;2023-04-03T06:53:27;5.97;;;2.87;;
52534;SDS011;38443;53.164;5.802;2023-04-03T06:55:53;5.95;;;3.50;;
52534;SDS011;38443;53.164;5.802;2023-04-03T07:00:44;8.35;;;3.42;;
52534;SDS011;38443;53.164;5.802;2023-04-03T07:05:35;5.38;;;3.13;;
52534;SDS011;38443;53.164;5.802;2023-04-03T07:10:25;7.07;;;2.85;;
52534;SDS011;38443;53.164;5.802;2023-04-03T07:15:16;6.57;;;2.83;;
52534;SDS011;38443;53.164;5.802;2023-04-03T07:20:07;5.18;;;3.03;;
52534;SDS011;38443;53.164;5.802;2023-04-03T07:24:58;6.78;;;2.90;;
52534;SDS011;38443;53.164;5.802;2023-04-03T07:29:50;4.80;;;2.80;;
52534;SDS011;38443;53.164;5.802;2023-04-03T07:34:41;5.63;;;2.90;;
52534;SDS011;38443;53.164;5.802;2023-04-03T07:39:32;3.90;;;2.72;;
52534;SDS011;38443;53.164;5.802;2023-04-03T07:44:23;7.65;;;3.10;;
52534;SDS011;38443;53.164;5.802;2023-04-03T07:49:15;5.50;;;2.35;;
52534;SDS011;38443;53.164;5.802;2023-04-03T07:51:43;4.15;;;2.70;;
52534;SDS011;38443;53.164;5.802;2023-04-03T07:56:33;4.97;;;2.35;;
52534;SDS011;38443;53.164;5.802;2023-04-03T08:01:24;4.57;;;2.70;;
52534;SDS011;38443;53.164;5.802;2023-04-03T08:06:15;5.68;;;2.40;;
52534;SDS011;38443;53.164;5.802;2023-04-03T08:11:06;10.18;;;2.70;;
52534;SDS011;38443;53.164;5.802;2023-04-03T08:13:33;3.10;;;2.17;;
52534;SDS011;38443;53.164;5.802;2023-04-03T08:16:06;3.40;;;2.20;;
52534;SDS011;38443;53.164;5.802;2023-04-03T08:18:35;4.72;;;2.13;;
52534;SDS011;38443;53.164;5.802;2023-04-03T08:23:26;5.40;;;2.37;;
52534;SDS011;38443;53.164;5.802;2023-04-03T08:28:16;6.25;;;2.83;;
52534;SDS011;38443;53.164;5.802;2023-04-03T08:33:07;6.15;;;2.33;;
52534;SDS011;38443;53.164;5.802;2023-04-03T08:35:37;4.25;;;2.47;;
52534;SDS011;38443;53.164;5.802;2023-04-03T08:38:05;3.55;;;2.25;;
52534;SDS011;38443;53.164;5.802;2023-04-03T08:47:53;4.32;;;2.05;;
52534;SDS011;38443;53.164;5.802;2023-04-03T08:50:30;5.43;;;2.33;;
52534;SDS011;38443;53.164;5.802;2023-04-03T08:53:12;4.45;;;1.90;;
52534;SDS011;38443;53.164;5.802;2023-04-03T08:55:43;14.40;;;2.15;;
52534;SDS011;38443;53.164;5.802;2023-04-03T08:58:18;2.47;;;1.85;;
52534;SDS011;38443;53.164;5.802;2023-04-03T09:00:50;2.58;;;1.67;;
52534;SDS011;38443;53.164;5.802;2023-04-03T09:03:30;3.70;;;2.05;;
52534;SDS011;38443;53.164;5.802;2023-04-03T09:06:07;4.20;;;1.88;;
52534;SDS011;38443;53.164;5.802;2023-04-03T09:08:37;4.22;;;2.40;;
52534;SDS011;38443;53.164;5.802;2023-04-03T09:11:24;2.90;;;1.50;;
52534;SDS011;38443;53.164;5.802;2023-04-03T09:14:02;5.60;;;1.73;;
52534;SDS011;38443;53.164;5.802;2023-04-03T09:21:49;2.83;;;1.73;;
52534;SDS011;38443;53.164;5.802;2023-04-03T09:29:19;2.55;;;1.70;;
52534;SDS011;38443;53.164;5.802;2023-04-03T09:31:46;3.08;;;1.70;;
52534;SDS011;38443;53.164;5.802;2023-04-03T09:36:51;2.38;;;1.58;;
52534;SDS011;38443;53.164;5.802;2023-04-03T09:39:19;2.47;;;1.60;;
52534;SDS011;38443;53.164;5.802;2023-04-03T09:42:34;2.63;;;1.50;;
52534;SDS011;38443;53.164;5.802;2023-04-03T09:44:55;4.00;;;1.77;;
52534;SDS011;38443;53.164;5.802;2023-04-03T09:52:45;4.93;;;1.88;;
52534;SDS011;38443;53.164;5.802;2023-04-03T09:55:26;2.63;;;1.40;;
52534;SDS011;38443;53.164;5.802;2023-04-03T09:57:54;2.00;;;1.40;;
52534;SDS011;38443;53.164;5.802;2023-04-03T10:00:25;3.05;;;1.63;;
52534;SDS011;38443;53.164;5.802;2023-04-03T10:02:56;4.18;;;1.48;;
52534;SDS011;38443;53.164;5.802;2023-04-03T10:05:26;4.10;;;1.60;;
52534;SDS011;38443;53.164;5.802;2023-04-03T10:07:52;1.80;;;1.30;;
52534;SDS011;38443;53.164;5.802;2023-04-03T10:10:44;2.22;;;1.38;;
52534;SDS011;38443;53.164;5.802;2023-04-03T10:16:03;1.85;;;1.13;;
52534;SDS011;38443;53.164;5.802;2023-04-03T10:21:20;1.80;;;1.17;;
52534;SDS011;38443;53.164;5.802;2023-04-03T10:26:34;3.10;;;1.60;;
52534;SDS011;38443;53.164;5.802;2023-04-03T10:34:45;2.70;;;1.35;;
52534;SDS011;38443;53.164;5.802;2023-04-03T10:42:50;2.63;;;1.80;;
52534;SDS011;38443;53.164;5.802;2023-04-03T10:45:25;1.70;;;1.35;;
52534;SDS011;38443;53.164;5.802;2023-04-03T10:53:39;2.75;;;1.13;;
52534;SDS011;38443;53.164;5.802;2023-04-03T10:56:35;2.78;;;1.33;;
52534;SDS011;38443;53.164;5.802;2023-04-03T11:02:04;3.28;;;1.50;;
52534;SDS011;38443;53.164;5.802;2023-04-03T11:04:37;1.90;;;1.10;;
52534;SDS011;38443;53.164;5.802;2023-04-03T11:09:43;1.98;;;1.20;;
52534;SDS011;38443;53.164;5.802;2023-04-03T11:14:40;2.67;;;1.38;;
52534;SDS011;38443;53.164;5.802;2023-04-03T11:19:50;2.40;;;1.33;;
52534;SDS011;38443;53.164;5.802;2023-04-03T11:22:32;2.63;;;1.48;;
52534;SDS011;38443;53.164;5.802;2023-04-03T11:27:36;3.17;;;1.50;;
52534;SDS011;38443;53.164;5.802;2023-04-03T11:30:09;2.63;;;1.00;;
52534;SDS011;38443;53.164;5.802;2023-04-03T11:35:16;5.57;;;1.50;;
52534;SDS011;38443;53.164;5.802;2023-04-03T11:37:45;2.70;;;1.20;;
52534;SDS011;38443;53.164;5.802;2023-04-03T11:42:43;1.85;;;1.30;;
52534;SDS011;38443;53.164;5.802;2023-04-03T11:47:49;1.98;;;1.30;;
52534;SDS011;38443;53.164;5.802;2023-04-03T12:08:23;2.17;;;1.20;;
52534;SDS011;38443;53.164;5.802;2023-04-03T12:13:33;2.97;;;1.50;;
52534;SDS011;38443;53.164;5.802;2023-04-03T12:21:02;2.85;;;1.20;;
52534;SDS011;38443;53.164;5.802;2023-04-03T12:28:55;2.15;;;1.05;;
52534;SDS011;38443;53.164;5.802;2023-04-03T12:34:01;1.90;;;1.20;;
52534;SDS011;38443;53.164;5.802;2023-04-03T12:37:03;3.47;;;1.35;;
52534;SDS011;38443;53.164;5.802;2023-04-03T12:39:48;2.42;;;1.27;;
52534;SDS011;38443;53.164;5.802;2023-04-03T12:45:21;3.78;;;1.42;;
52534;SDS011;38443;53.164;5.802;2023-04-03T12:47:49;2.05;;;1.55;;
52534;SDS011;38443;53.164;5.802;2023-04-03T12:50:30;1.35;;;1.10;;
52534;SDS011;38443;53.164;5.802;2023-04-03T12:55:37;2.10;;;1.40;;
52534;SDS011;38443;53.164;5.802;2023-04-03T13:00:42;2.13;;;1.52;;
52534;SDS011;38443;53.164;5.802;2023-04-03T13:06:00;2.42;;;1.55;;
52534;SDS011;38443;53.164;5.802;2023-04-03T13:08:28;3.70;;;1.38;;
52534;SDS011;38443;53.164;5.802;2023-04-03T13:21:20;3.10;;;1.63;;
52534;SDS011;38443;53.164;5.802;2023-04-03T13:23:50;1.92;;;1.23;;
52534;SDS011;38443;53.164;5.802;2023-04-03T13:29:18;1.65;;;1.38;;
52534;SDS011;38443;53.164;5.802;2023-04-03T13:31:54;2.50;;;1.48;;
52534;SDS011;38443;53.164;5.802;2023-04-03T13:34:21;2.70;;;1.63;;
52534;SDS011;38443;53.164;5.802;2023-04-03T13:36:56;2.30;;;1.33;;
52534;SDS011;38443;53.164;5.802;2023-04-03T13:39:25;3.38;;;1.50;;
52534;SDS011;38443;53.164;5.802;2023-04-03T13:41:59;5.05;;;1.60;;
52534;SDS011;38443;53.164;5.802;2023-04-03T13:44:34;2.30;;;1.60;;
52534;SDS011;38443;53.164;5.802;2023-04-03T13:49:37;2.70;;;1.45;;
52534;SDS011;38443;53.164;5.802;2023-04-03T13:52:21;2.75;;;1.98;;
52534;SDS011;38443;53.164;5.802;2023-04-03T13:54:51;2.22;;;1.48;;
52534;SDS011;38443;53.164;5.802;2023-04-03T13:57:20;2.95;;;1.60;;
52534;SDS011;38443;53.164;5.802;2023-04-03T14:02:16;2.95;;;1.73;;
52534;SDS011;38443;53.164;5.802;2023-04-03T14:09:35;3.88;;;1.60;;
52534;SDS011;38443;53.164;5.802;2023-04-03T14:14:34;2.30;;;1.60;;
52534;SDS011;38443;53.164;5.802;2023-04-03T14:17:02;2.10;;;1.40;;
52534;SDS011;38443;53.164;5.802;2023-04-03T14:19:35;3.00;;;1.55;;
52534;SDS011;38443;53.164;5.802;2023-04-03T14:24:31;1.50;;;1.27;;
52534;SDS011;38443;53.164;5.802;2023-04-03T14:29:22;3.63;;;1.30;;
52534;SDS011;38443;53.164;5.802;2023-04-03T14:34:15;2.38;;;1.52;;
52534;SDS011;38443;53.164;5.802;2023-04-03T14:36:41;2.53;;;1.50;;
52534;SDS011;38443;53.164;5.802;2023-04-03T14:39:10;2.63;;;1.77;;
52534;SDS011;38443;53.164;5.802;2023-04-03T14:41:41;4.53;;;1.50;;
52534;SDS011;38443;53.164;5.802;2023-04-03T14:44:07;2.78;;;1.85;;
52534;SDS011;38443;53.164;5.802;2023-04-03T14:49:03;3.97;;;1.63;;
52534;SDS011;38443;53.164;5.802;2023-04-03T14:51:37;2.58;;;1.70;;
52534;SDS011;38443;53.164;5.802;2023-04-03T14:56:28;2.70;;;1.60;;
52534;SDS011;38443;53.164;5.802;2023-04-03T14:58:58;3.30;;;1.77;;
52534;SDS011;38443;53.164;5.802;2023-04-03T15:01:25;3.20;;;2.10;;
52534;SDS011;38443;53.164;5.802;2023-04-03T15:03:51;3.03;;;1.80;;
52534;SDS011;38443;53.164;5.802;2023-04-03T15:08:43;1.42;;;1.30;;
52534;SDS011;38443;53.164;5.802;2023-04-03T15:11:10;4.25;;;1.70;;
52534;SDS011;38443;53.164;5.802;2023-04-03T15:16:01;3.20;;;1.80;;
52534;SDS011;38443;53.164;5.802;2023-04-03T15:18:29;3.25;;;1.90;;
52534;SDS011;38443;53.164;5.802;2023-04-03T15:21:00;2.92;;;1.50;;
52534;SDS011;38443;53.164;5.802;2023-04-03T15:25:53;3.03;;;1.67;;
52534;SDS011;38443;53.164;5.802;2023-04-03T15:30:50;2.80;;;1.70;;
52534;SDS011;38443;53.164;5.802;2023-04-03T15:35:41;3.90;;;1.67;;
52534;SDS011;38443;53.164;5.802;2023-04-03T15:40:31;4.68;;;2.17;;
52534;SDS011;38443;53.164;5.802;2023-04-03T15:45:22;4.20;;;2.00;;
52534;SDS011;38443;53.164;5.802;2023-04-03T15:50:13;2.53;;;1.60;;
52534;SDS011;38443;53.164;5.802;2023-04-03T15:55:04;3.17;;;1.70;;
52534;SDS011;38443;53.164;5.802;2023-04-03T15:57:30;2.58;;;1.73;;
52534;SDS011;38443;53.164;5.802;2023-04-03T16:02:21;3.60;;;1.80;;
52534;SDS011;38443;53.164;5.802;2023-04-03T16:07:12;2.58;;;1.50;;
52534;SDS011;38443;53.164;5.802;2023-04-03T16:12:03;2.15;;;1.30;;
52534;SDS011;38443;53.164;5.802;2023-04-03T16:16:55;2.13;;;1.77;;
52534;SDS011;38443;53.164;5.802;2023-04-03T16:19:21;3.05;;;1.33;;
52534;SDS011;38443;53.164;5.802;2023-04-03T16:24:12;3.33;;;1.60;;
52534;SDS011;38443;53.164;5.802;2023-04-03T16:29:03;2.30;;;1.63;;
52534;SDS011;38443;53.164;5.802;2023-04-03T16:33:56;3.40;;;1.27;;
52534;SDS011;38443;53.164;5.802;2023-04-03T16:38:46;2.63;;;1.15;;
52534;SDS011;38443;53.164;5.802;2023-04-03T16:43:37;1.83;;;1.23;;
52534;SDS011;38443;53.164;5.802;2023-04-03T16:48:28;2.28;;;1.25;;
52534;SDS011;38443;53.164;5.802;2023-04-03T16:50:54;1.75;;;1.20;;
52534;SDS011;38443;53.164;5.802;2023-04-03T16:55:45;2.65;;;1.55;;
52534;SDS011;38443;53.164;5.802;2023-04-03T17:00:36;2.83;;;1.63;;
52534;SDS011;38443;53.164;5.802;2023-04-03T17:05:27;1.88;;;1.20;;
52534;SDS011;38443;53.164;5.802;2023-04-03T17:10:17;3.08;;;1.70;;
52534;SDS011;38443;53.164;5.802;2023-04-03T17:15:08;2.65;;;1.52;;
52534;SDS011;38443;53.164;5.802;2023-04-03T17:20:00;4.53;;;1.50;;
52534;SDS011;38443;53.164;5.802;2023-04-03T17:24:51;2.45;;;1.63;;
52534;SDS011;38443;53.164;5.802;2023-04-03T17:29:41;1.77;;;1.38;;
52534;SDS011;38443;53.164;5.802;2023-04-03T17:34:32;2.38;;;1.63;;
52534;SDS011;38443;53.164;5.802;2023-04-03T17:39:23;2.30;;;1.42;;
52534;SDS011;38443;53.164;5.802;2023-04-03T17:44:13;2.88;;;1.50;;
52534;SDS011;38443;53.164;5.802;2023-04-03T17:49:04;5.32;;;1.95;;
52534;SDS011;38443;53.164;5.802;2023-04-03T17:53:58;3.83;;;1.63;;
52534;SDS011;38443;53.164;5.802;2023-04-03T17:58:51;2.13;;;1.40;;
52534;SDS011;38443;53.164;5.802;2023-04-03T18:01:18;3.42;;;1.60;;
52534;SDS011;38443;53.164;5.802;2023-04-03T18:03:51;1.92;;;1.40;;
52534;SDS011;38443;53.164;5.802;2023-04-03T18:06:19;2.38;;;1.50;;
52534;SDS011;38443;53.164;5.802;2023-04-03T18:08:47;2.63;;;1.25;;
52534;SDS011;38443;53.164;5.802;2023-04-03T18:11:15;2.53;;;1.42;;
52534;SDS011;38443;53.164;5.802;2023-04-03T18:13:41;3.20;;;1.52;;
52534;SDS011;38443;53.164;5.802;2023-04-03T18:16:09;3.35;;;1.30;;
52534;SDS011;38443;53.164;5.802;2023-04-03T18:18:36;2.92;;;1.70;;
52534;SDS011;38443;53.164;5.802;2023-04-03T18:23:27;3.55;;;1.65;;
52534;SDS011;38443;53.164;5.802;2023-04-03T18:25:54;6.10;;;1.80;;
52534;SDS011;38443;53.164;5.802;2023-04-03T18:30:45;2.95;;;1.35;;
52534;SDS011;38443;53.164;5.802;2023-04-03T18:35:36;4.60;;;1.70;;
52534;SDS011;38443;53.164;5.802;2023-04-03T18:40:28;4.05;;;1.55;;
52534;SDS011;38443;53.164;5.802;2023-04-03T18:42:55;8.60;;;2.00;;
52534;SDS011;38443;53.164;5.802;2023-04-03T18:47:47;4.20;;;1.65;;
52534;SDS011;38443;53.164;5.802;2023-04-03T18:52:38;3.10;;;1.63;;
52534;SDS011;38443;53.164;5.802;2023-04-03T18:57:29;3.45;;;1.70;;
52534;SDS011;38443;53.164;5.802;2023-04-03T19:02:19;4.55;;;1.80;;
52534;SDS011;38443;53.164;5.802;2023-04-03T19:04:47;5.15;;;1.92;;
52534;SDS011;38443;53.164;5.802;2023-04-03T19:09:37;3.58;;;1.98;;
52534;SDS011;38443;53.164;5.802;2023-04-03T19:12:04;2.13;;;1.83;;
52534;SDS011;38443;53.164;5.802;2023-04-03T19:14:31;4.63;;;1.80;;
52534;SDS011;38443;53.164;5.802;2023-04-03T19:19:21;4.40;;;1.90;;
52534;SDS011;38443;53.164;5.802;2023-04-03T19:24:12;2.90;;;1.83;;
52534;SDS011;38443;53.164;5.802;2023-04-03T19:29:03;4.45;;;1.98;;
52534;SDS011;38443;53.164;5.802;2023-04-03T19:33:55;2.30;;;1.60;;
52534;SDS011;38443;53.164;5.802;2023-04-03T19:38:46;4.95;;;2.30;;
52534;SDS011;38443;53.164;5.802;2023-04-03T19:43:39;3.90;;;2.38;;
52534;SDS011;38443;53.164;5.802;2023-04-03T19:46:05;6.35;;;2.20;;
52534;SDS011;38443;53.164;5.802;2023-04-03T19:50:56;3.78;;;2.03;;
52534;SDS011;38443;53.164;5.802;2023-04-03T19:55:48;3.50;;;2.13;;
52534;SDS011;38443;53.164;5.802;2023-04-03T19:58:14;4.15;;;1.85;;
52534;SDS011;38443;53.164;5.802;2023-04-03T20:03:05;3.72;;;2.00;;
52534;SDS011;38443;53.164;5.802;2023-04-03T20:07:56;3.10;;;2.10;;
52534;SDS011;38443;53.164;5.802;2023-04-03T20:12:47;4.07;;;2.28;;
52534;SDS011;38443;53.164;5.802;2023-04-03T20:15:14;4.15;;;2.33;;
52534;SDS011;38443;53.164;5.802;2023-04-03T20:17:41;7.78;;;2.25;;
52534;SDS011;38443;53.164;5.802;2023-04-03T20:22:33;3.08;;;2.03;;
52534;SDS011;38443;53.164;5.802;2023-04-03T20:25:01;3.33;;;1.95;;
52534;SDS011;38443;53.164;5.802;2023-04-03T20:27:28;2.65;;;2.05;;
52534;SDS011;38443;53.164;5.802;2023-04-03T20:29:54;5.60;;;2.20;;
52534;SDS011;38443;53.164;5.802;2023-04-03T20:34:45;4.55;;;2.13;;
52534;SDS011;38443;53.164;5.802;2023-04-03T20:39:36;4.25;;;2.00;;
52534;SDS011;38443;53.164;5.802;2023-04-03T20:44:28;4.10;;;2.10;;
52534;SDS011;38443;53.164;5.802;2023-04-03T20:49:19;5.55;;;2.25;;
52534;SDS011;38443;53.164;5.802;2023-04-03T20:51:45;2.50;;;1.90;;
52534;SDS011;38443;53.164;5.802;2023-04-03T20:56:36;5.90;;;2.13;;
52534;SDS011;38443;53.164;5.802;2023-04-03T21:01:29;4.38;;;2.03;;
52534;SDS011;38443;53.164;5.802;2023-04-03T21:03:56;3.95;;;2.35;;
52534;SDS011;38443;53.164;5.802;2023-04-03T21:23:02;3.67;;;2.10;;
52534;SDS011;38443;53.164;5.802;2023-04-03T21:25:28;3.55;;;1.98;;
52534;SDS011;38443;53.164;5.802;2023-04-03T21:30:20;3.33;;;2.00;;
52534;SDS011;38443;53.164;5.802;2023-04-03T21:32:47;2.85;;;1.90;;
52534;SDS011;38443;53.164;5.802;2023-04-03T21:37:37;4.15;;;2.03;;
52534;SDS011;38443;53.164;5.802;2023-04-03T21:42:28;5.45;;;1.90;;
52534;SDS011;38443;53.164;5.802;2023-04-03T21:44:53;2.92;;;1.70;;
52534;SDS011;38443;53.164;5.802;2023-04-03T21:49:45;2.88;;;1.77;;
52534;SDS011;38443;53.164;5.802;2023-04-03T21:52:11;2.90;;;1.83;;
52534;SDS011;38443;53.164;5.802;2023-04-03T21:57:02;3.87;;;2.00;;
52534;SDS011;38443;53.164;5.802;2023-04-03T21:59:28;5.35;;;2.10;;
52534;SDS011;38443;53.164;5.802;2023-04-03T22:04:19;3.23;;;2.30;;
52534;SDS011;38443;53.164;5.802;2023-04-03T22:09:11;4.20;;;1.88;;
52534;SDS011;38443;53.164;5.802;2023-04-03T22:14:04;5.57;;;2.92;;
52534;SDS011;38443;53.164;5.802;2023-04-03T22:18:54;4.13;;;2.13;;
52534;SDS011;38443;53.164;5.802;2023-04-03T22:21:23;4.03;;;1.95;;
52534;SDS011;38443;53.164;5.802;2023-04-03T22:26:13;4.15;;;2.10;;
52534;SDS011;38443;53.164;5.802;2023-04-03T22:31:05;3.75;;;2.47;;
52534;SDS011;38443;53.164;5.802;2023-04-03T22:33:31;4.78;;;2.33;;
52534;SDS011;38443;53.164;5.802;2023-04-03T22:35:57;2.75;;;1.83;;
52534;SDS011;38443;53.164;5.802;2023-04-03T22:40:58;5.25;;;2.65;;
52534;SDS011;38443;53.164;5.802;2023-04-03T22:45:51;8.37;;;2.33;;
52534;SDS011;38443;53.164;5.802;2023-04-03T22:50:42;3.45;;;2.45;;
52534;SDS011;38443;53.164;5.802;2023-04-03T22:55:33;5.35;;;2.28;;
52534;SDS011;38443;53.164;5.802;2023-04-03T23:00:24;4.68;;;2.15;;
52534;SDS011;38443;53.164;5.802;2023-04-03T23:02:51;5.40;;;2.65;;
52534;SDS011;38443;53.164;5.802;2023-04-03T23:07:42;4.55;;;2.28;;
52534;SDS011;38443;53.164;5.802;2023-04-03T23:12:36;4.47;;;2.70;;
52534;SDS011;38443;53.164;5.802;2023-04-03T23:15:03;4.50;;;3.00;;
52534;SDS011;38443;53.164;5.802;2023-04-03T23:17:29;5.40;;;2.50;;
52534;SDS011;38443;53.164;5.802;2023-04-03T23:22:20;6.53;;;2.72;;
52534;SDS011;38443;53.164;5.802;2023-04-03T23:27:11;4.85;;;2.78;;
52534;SDS011;38443;53.164;5.802;2023-04-03T23:32:02;5.65;;;2.08;;
52534;SDS011;38443;53.164;5.802;2023-04-03T23:36:52;4.00;;;2.37;;
52534;SDS011;38443;53.164;5.802;2023-04-03T23:39:17;6.53;;;2.95;;
52534;SDS011;38443;53.164;5.802;2023-04-03T23:41:44;5.15;;;2.53;;
52534;SDS011;38443;53.164;5.802;2023-04-03T23:46:35;6.10;;;2.63;;
52534;SDS011;38443;53.164;5.802;2023-04-03T23:51:25;4.45;;;2.67;;
52534;SDS011;38443;53.164;5.802;2023-04-03T23:56:16;11.98;;;3.33;;
